Terminal Aerodrome Forecast
Issued by NWS

Home | Current Version | Previous Version | Text Only | Print | Product List | Glossary On
Versions: 1 2 3 4 5 6 7 8 9 10 11 12 13 14 15 16
000
FTUS44 KMAF 230654 AAA
TAFHOB
TAF AMD
KHOB 230654Z 2307/2406 16015G25KT P6SM BKN015
     FM231200 15014G24KT P6SM OVC003
     FM231600 14017G27KT P6SM BKN250
     FM231900 18024G34KT P6SM SCT045 BKN250
     FM240100 25015G25KT P6SM SCT200=

USA.gov is the U.S. government's official web portal to all federal, state and local government web resources and services.